createdAt,value
2022-11-17T00:00:38.968Z,95260.41
2022-11-17T00:03:05.493Z,95252.81
2022-11-17T00:05:31.891Z,95259.59
2022-11-17T00:07:58.427Z,95261.25
2022-11-17T00:10:26.847Z,95260.44
2022-11-17T00:13:11.962Z,95253.66
2022-11-17T00:15:42.771Z,95253.63
2022-11-17T00:18:27.709Z,95251.94
2022-11-17T00:21:12.803Z,95251.09
2022-11-17T00:23:48.465Z,95240.09
2022-11-17T00:26:22.817Z,95248.56
2022-11-17T00:28:54.250Z,95247.72
2022-11-17T00:31:40.514Z,95243.47
2022-11-17T00:34:07.724Z,95234.16
2022-11-17T00:36:45.098Z,95251.09
2022-11-17T00:39:13.003Z,95239.25
2022-11-17T00:41:39.473Z,95245.19
2022-11-17T00:44:06.454Z,95242.63
2022-11-17T00:46:33.813Z,95239.22
2022-11-17T00:49:00.399Z,95229.09
2022-11-17T00:51:26.999Z,95217.22
2022-11-17T00:53:53.989Z,95229.06
2022-11-17T00:56:20.367Z,95226.53
2022-11-17T00:58:46.775Z,95231.63
2022-11-17T01:01:13.612Z,95240.09
2022-11-17T01:03:40.159Z,95236.69
2022-11-17T01:06:12.162Z,95236.69
2022-11-17T01:08:38.955Z,95230.78
2022-11-17T01:11:14.617Z,95230.78
2022-11-17T01:13:42.270Z,95235.03
2022-11-17T01:16:17.370Z,95242.63
2022-11-17T01:18:45.711Z,95236.72
2022-11-17T01:21:13.683Z,95238.41
2022-11-17T01:23:42.244Z,95224.84
2022-11-17T01:26:17.755Z,95235.84
2022-11-17T01:28:44.543Z,95225.69
2022-11-17T01:31:13.171Z,95229.94
2022-11-17T01:33:40.303Z,95224.00
2022-11-17T01:36:28.155Z,95214.69
2022-11-17T01:38:54.952Z,95207.91
2022-11-17T01:41:26.573Z,95205.41
2022-11-17T01:43:58.520Z,95202.00
2022-11-17T01:46:39.246Z,95197.78
2022-11-17T01:49:13.811Z,95192.66
2022-11-17T01:51:45.058Z,95193.53
2022-11-17T01:54:13.189Z,95192.69
2022-11-17T01:56:44.320Z,95188.44
2022-11-17T01:59:25.383Z,95189.28
2022-11-17T02:01:57.772Z,95182.56
2022-11-17T02:04:29.897Z,95181.72
2022-11-17T02:07:05.290Z,95175.78
2022-11-17T02:09:35.365Z,95180.84
2022-11-17T02:12:02.888Z,95181.69
2022-11-17T02:14:29.297Z,95185.94
2022-11-17T02:16:56.042Z,95180.88
2022-11-17T02:19:26.945Z,95178.31
2022-11-17T02:22:33.851Z,95180.00
2022-11-17T02:25:29.662Z,95187.63
2022-11-17T02:28:14.753Z,95180.88
2022-11-17T02:30:51.977Z,95175.78
2022-11-17T02:33:25.331Z,95173.25
2022-11-17T02:36:07.792Z,95163.94
2022-11-17T02:38:57.247Z,95152.06
2022-11-17T02:41:30.630Z,95155.47
2022-11-17T02:44:09.837Z,95141.09
2022-11-17T02:46:51.168Z,95150.38
2022-11-17T02:49:22.180Z,95134.31
2022-11-17T02:51:52.315Z,95135.13
2022-11-17T02:54:21.040Z,95141.06
2022-11-17T02:56:47.408Z,95143.56
2022-11-17T02:59:17.367Z,95134.28
2022-11-17T03:02:10.954Z,95132.63
2022-11-17T03:04:55.821Z,95121.59
2022-11-17T03:07:37.501Z,95108.03
2022-11-17T03:10:14.898Z,95113.97
2022-11-17T03:12:53.679Z,95114.81
2022-11-17T03:15:25.991Z,95111.44
2022-11-17T03:18:04.244Z,95114.81
2022-11-17T03:21:12.417Z,95112.28
2022-11-17T03:24:05.368Z,95113.97
2022-11-17T03:26:35.889Z,95109.72
2022-11-17T03:29:06.569Z,95102.94
2022-11-17T03:31:34.978Z,95101.25
2022-11-17T03:34:05.130Z,95094.50
2022-11-17T03:36:39.043Z,95104.66
2022-11-17T03:39:19.382Z,95093.63
2022-11-17T03:41:49.501Z,95093.66
2022-11-17T03:44:19.779Z,95097.03
2022-11-17T03:46:48.981Z,95091.97
2022-11-17T03:49:25.851Z,95084.34
2022-11-17T03:51:52.401Z,95069.91
2022-11-17T03:54:18.920Z,95069.91
2022-11-17T03:56:55.407Z,95062.31
2022-11-17T03:59:31.482Z,95058.94
2022-11-17T04:01:58.694Z,95060.63
2022-11-17T04:04:45.326Z,95061.47
2022-11-17T04:07:11.674Z,95063.22
2022-11-17T04:09:38.159Z,95053.88
2022-11-17T04:12:23.456Z,95052.19
2022-11-17T04:15:08.415Z,95047.09
2022-11-17T04:17:34.877Z,95052.19
2022-11-17T04:20:01.288Z,95052.19
2022-11-17T04:22:27.644Z,95047.13
2022-11-17T04:24:54.014Z,95049.66
2022-11-17T04:27:39.140Z,95052.16
2022-11-17T04:30:05.876Z,95047.94
2022-11-17T04:32:32.362Z,95042.88
2022-11-17T04:34:58.736Z,95038.66
2022-11-17T04:37:25.069Z,95045.44
2022-11-17T04:39:51.437Z,95037.00
2022-11-17T04:42:17.890Z,95042.91
2022-11-17T04:44:44.242Z,95032.75
2022-11-17T04:47:10.591Z,95034.41
2022-11-17T04:49:36.902Z,95031.03
2022-11-17T04:52:05.786Z,95025.94
2022-11-17T04:54:32.220Z,95023.44
2022-11-17T04:56:58.659Z,95015.00
2022-11-17T04:59:25.161Z,95001.41
2022-11-17T05:01:51.660Z,95004.81
2022-11-17T05:04:39.781Z,95002.28
2022-11-17T05:07:08.130Z,95000.56
2022-11-17T05:09:34.820Z,94993.84
2022-11-17T05:12:19.553Z,94990.41
2022-11-17T05:14:48.979Z,94988.72
2022-11-17T05:17:15.866Z,94994.63
2022-11-17T05:19:46.925Z,94992.97
2022-11-17T05:22:35.915Z,94998.88
2022-11-17T05:25:04.890Z,94996.34
2022-11-17T05:27:31.568Z,94981.94
2022-11-17T05:29:57.898Z,94976.88
2022-11-17T05:32:24.262Z,94972.66
2022-11-17T05:34:50.831Z,94973.53
2022-11-17T05:37:17.365Z,94992.97
2022-11-17T05:39:43.733Z,95007.34
2022-11-17T05:42:10.172Z,95005.63
2022-11-17T05:44:36.586Z,95006.50
2022-11-17T05:47:02.922Z,95005.66
2022-11-17T05:49:29.269Z,95013.28
2022-11-17T05:51:55.705Z,95019.19
2022-11-17T05:54:22.087Z,95015.81
2022-11-17T05:56:53.282Z,95015.81
2022-11-17T05:59:28.421Z,95030.22
2022-11-17T06:02:02.389Z,95030.19
2022-11-17T06:04:28.933Z,95029.34
2022-11-17T06:06:59.361Z,95036.97
2022-11-17T06:09:28.638Z,95029.34
2022-11-17T06:11:55.112Z,95036.97
2022-11-17T06:14:21.473Z,95041.16
2022-11-17T06:16:51.471Z,95042.03
2022-11-17T06:19:27.119Z,95038.66
2022-11-17T06:22:11.143Z,95032.72
2022-11-17T06:24:39.102Z,95037.81
2022-11-17T06:27:05.847Z,95025.97
2022-11-17T06:29:32.408Z,95035.28
2022-11-17T06:31:59.282Z,95023.41
2022-11-17T06:34:27.555Z,95042.88
2022-11-17T06:36:53.894Z,95039.50
2022-11-17T06:39:20.300Z,95052.16
2022-11-17T06:41:46.638Z,95036.97
2022-11-17T06:44:13.006Z,95065.69
2022-11-17T06:46:39.351Z,95045.38
2022-11-17T06:49:07.485Z,95065.69
2022-11-17T06:51:40.953Z,95062.34
2022-11-17T06:54:12.327Z,95064.88
2022-11-17T06:56:38.821Z,95058.94
2022-11-17T06:59:05.369Z,95044.56
2022-11-17T07:01:32.051Z,95052.16
2022-11-17T07:03:58.549Z,95040.31
2022-11-17T07:06:24.930Z,95040.31
2022-11-17T07:08:51.365Z,95036.97
2022-11-17T07:11:18.063Z,95031.06
2022-11-17T07:13:44.819Z,95035.28
2022-11-17T07:16:22.943Z,95033.56
2022-11-17T07:18:50.492Z,95035.25
2022-11-17T07:21:17.899Z,95036.09
2022-11-17T07:23:45.646Z,95039.47
2022-11-17T07:26:12.251Z,95031.03
2022-11-17T07:28:39.033Z,95032.72
2022-11-17T07:31:08.312Z,95029.34
2022-11-17T07:33:35.463Z,95037.81
2022-11-17T07:36:07.734Z,95038.59
2022-11-17T07:38:35.725Z,95041.16
2022-11-17T07:41:03.933Z,95039.47
2022-11-17T07:43:31.243Z,95053.88
2022-11-17T07:45:57.735Z,95055.59
2022-11-17T07:48:24.368Z,95056.44
2022-11-17T07:50:51.036Z,95055.59
2022-11-17T07:53:17.625Z,95078.41
2022-11-17T07:55:44.006Z,95074.19
2022-11-17T07:58:10.555Z,95070.81
2022-11-17T08:00:37.109Z,95082.66
2022-11-17T08:03:04.354Z,95054.69
2022-11-17T08:05:37.099Z,95054.72
2022-11-17T08:08:07.969Z,95050.47
2022-11-17T08:10:34.637Z,95055.53
2022-11-17T08:13:01.250Z,95057.25
2022-11-17T08:15:29.532Z,95054.69
2022-11-17T08:17:58.154Z,95039.44
2022-11-17T08:20:25.611Z,95022.53
2022-11-17T08:22:53.074Z,95044.53
2022-11-17T08:25:21.321Z,95055.56
2022-11-17T08:27:51.868Z,95049.63
2022-11-17T08:30:20.407Z,95055.56
2022-11-17T08:32:49.212Z,95055.53
2022-11-17T08:35:17.085Z,95056.38
2022-11-17T08:37:43.517Z,95057.19
2022-11-17T08:40:11.013Z,95052.09
2022-11-17T08:42:37.666Z,95051.25
2022-11-17T08:45:05.972Z,95041.94
2022-11-17T08:47:32.417Z,95051.22
2022-11-17T08:49:58.859Z,95040.25
2022-11-17T08:52:27.688Z,95056.31
2022-11-17T08:54:54.458Z,95046.13
2022-11-17T08:57:23.855Z,95055.44
2022-11-17T08:59:50.812Z,95061.34
2022-11-17T09:02:17.801Z,95057.09
2022-11-17T09:04:46.093Z,95051.09
2022-11-17T09:07:12.641Z,95057.88
2022-11-17T09:09:39.290Z,95064.69
2022-11-17T09:12:05.962Z,95055.34
2022-11-17T09:14:32.503Z,95062.94
2022-11-17T09:16:59.287Z,95059.56
2022-11-17T09:19:25.793Z,95051.06
2022-11-17T09:21:52.229Z,95045.06
2022-11-17T09:24:18.669Z,95042.50
2022-11-17T09:26:45.108Z,95036.59
2022-11-17T09:29:11.848Z,95020.50
2022-11-17T09:31:38.702Z,95028.91
2022-11-17T09:34:06.078Z,95038.28
2022-11-17T09:36:33.035Z,95030.56
2022-11-17T09:38:59.399Z,95028.06
2022-11-17T09:41:38.424Z,95019.59
2022-11-17T09:44:26.074Z,95025.44
2022-11-17T09:46:55.643Z,95013.59
2022-11-17T09:49:58.654Z,95021.13
2022-11-17T09:52:36.993Z,95041.44
2022-11-17T09:55:34.377Z,95049.00
2022-11-17T09:58:03.896Z,95050.75
2022-11-17T10:00:32.807Z,95044.84
2022-11-17T10:02:59.312Z,95023.63
2022-11-17T10:05:32.972Z,95026.91
2022-11-17T10:08:03.454Z,95011.66
2022-11-17T10:10:39.545Z,95010.84
2022-11-17T10:13:14.310Z,95020.19
2022-11-17T10:15:50.212Z,95038.78
2022-11-17T10:18:17.449Z,95035.34
2022-11-17T10:20:44.902Z,95042.28
2022-11-17T10:23:19.477Z,95031.97
2022-11-17T10:25:48.196Z,95042.22
2022-11-17T10:28:32.312Z,95051.53
2022-11-17T10:31:16.396Z,95065.00
2022-11-17T10:33:45.953Z,95081.91
2022-11-17T10:36:25.435Z,95081.13
2022-11-17T10:38:54.291Z,95075.97
2022-11-17T10:41:41.551Z,95055.66
2022-11-17T10:44:25.097Z,95040.28
2022-11-17T10:47:02.578Z,95038.47
2022-11-17T10:49:40.340Z,95032.53
2022-11-17T10:52:16.215Z,95026.59
2022-11-17T10:54:43.215Z,95024.78
2022-11-17T10:57:17.888Z,95021.38
2022-11-17T10:59:57.182Z,95034.06
2022-11-17T11:02:38.181Z,95028.00
2022-11-17T11:05:13.373Z,95025.50
2022-11-17T11:07:40.627Z,95019.50
2022-11-17T11:10:34.469Z,95025.47
2022-11-17T11:13:03.662Z,95021.09
2022-11-17T11:15:34.172Z,95003.97
2022-11-17T11:18:01.243Z,95010.75
2022-11-17T11:20:53.861Z,95014.06
2022-11-17T11:23:34.809Z,95013.94
2022-11-17T11:26:16.318Z,94999.22
2022-11-17T11:29:03.530Z,95001.03
2022-11-17T11:31:35.903Z,95006.84
2022-11-17T11:34:10.972Z,95000.97
2022-11-17T11:36:47.307Z,95003.47
2022-11-17T11:39:16.649Z,95000.81
2022-11-17T11:42:08.134Z,95004.16
2022-11-17T11:44:47.735Z,94999.09
2022-11-17T11:47:47.791Z,94999.03
2022-11-17T11:50:14.155Z,94989.72
2022-11-17T11:52:46.199Z,94971.09
2022-11-17T11:55:27.580Z,94990.56
2022-11-17T11:58:02.515Z,94982.19
2022-11-17T12:00:28.972Z,94982.13
2022-11-17T12:03:04.545Z,94979.63
2022-11-17T12:06:30.908Z,94986.34
2022-11-17T12:09:18.956Z,94986.38
2022-11-17T12:12:01.550Z,94983.88
2022-11-17T12:14:29.475Z,94976.09
2022-11-17T12:17:15.934Z,94980.31
2022-11-17T12:19:53.845Z,94978.50
2022-11-17T12:22:26.260Z,94985.22
2022-11-17T12:24:57.854Z,94979.16
2022-11-17T12:27:36.247Z,94973.38
2022-11-17T12:30:05.874Z,94978.16
2022-11-17T12:32:44.159Z,94978.22
2022-11-17T12:35:24.273Z,94974.06
2022-11-17T12:38:15.558Z,94974.06
2022-11-17T12:40:45.083Z,94976.53
2022-11-17T12:43:14.452Z,94975.69
2022-11-17T12:45:53.047Z,94967.94
2022-11-17T12:48:35.114Z,94972.09
2022-11-17T12:51:23.339Z,94982.03
2022-11-17T12:53:58.647Z,94970.69
2022-11-17T12:56:43.841Z,94973.88
2022-11-17T12:59:39.843Z,94956.03
2022-11-17T13:02:40.716Z,94978.41
2022-11-17T13:05:17.729Z,94982.53
2022-11-17T13:07:44.285Z,94975.75
2022-11-17T13:10:29.381Z,94965.41
2022-11-17T13:13:19.631Z,94959.78
2022-11-17T13:15:55.575Z,94960.00
2022-11-17T13:18:41.941Z,94959.72
2022-11-17T13:21:26.444Z,94963.47
2022-11-17T13:23:53.693Z,94964.59
2022-11-17T13:26:26.072Z,94974.09
2022-11-17T13:29:13.231Z,94988.22
2022-11-17T13:31:39.880Z,94979.78
2022-11-17T13:34:12.759Z,94993.97
2022-11-17T13:36:57.921Z,94986.94
2022-11-17T13:39:27.878Z,94997.19
2022-11-17T13:41:56.104Z,94999.56
2022-11-17T13:44:24.637Z,94976.00
2022-11-17T13:46:51.027Z,94971.66
2022-11-17T13:49:37.009Z,94968.09
2022-11-17T13:52:05.238Z,94961.41
2022-11-17T13:54:33.036Z,94978.66
2022-11-17T13:57:06.863Z,94991.56
2022-11-17T13:59:38.915Z,95001.53
2022-11-17T14:02:24.477Z,94995.94
2022-11-17T14:05:26.411Z,95011.69
2022-11-17T14:07:54.516Z,95004.81
2022-11-17T14:10:20.797Z,95009.53
2022-11-17T14:12:47.116Z,95014.94
2022-11-17T14:15:24.575Z,95006.53
2022-11-17T14:17:56.595Z,95009.19
2022-11-17T14:20:25.891Z,95010.03
2022-11-17T14:23:18.667Z,95011.28
2022-11-17T14:25:50.004Z,95013.84
2022-11-17T14:28:18.337Z,95013.03
2022-11-17T14:30:48.360Z,95008.09
2022-11-17T14:33:14.705Z,95007.34
2022-11-17T14:35:41.789Z,95001.13
2022-11-17T14:38:11.240Z,95001.41
2022-11-17T14:40:37.639Z,95010.38
2022-11-17T14:43:04.051Z,95011.53
2022-11-17T14:45:30.688Z,94996.28
2022-11-17T14:47:57.124Z,95002.78
2022-11-17T14:50:23.497Z,95023.09
2022-11-17T14:52:49.909Z,95000.06
2022-11-17T14:55:16.352Z,95007.78
2022-11-17T14:57:42.878Z,95000.47
2022-11-17T15:00:13.411Z,95008.34
2022-11-17T15:02:42.309Z,95009.25
2022-11-17T15:05:08.863Z,95014.28
2022-11-17T15:07:35.275Z,95019.56
2022-11-17T15:10:01.719Z,95027.25
2022-11-17T15:12:29.736Z,95014.69
2022-11-17T15:14:57.580Z,95015.84
2022-11-17T15:17:25.259Z,95028.75
2022-11-17T15:19:51.926Z,95026.34
2022-11-17T15:22:18.467Z,95038.28
2022-11-17T15:24:45.162Z,95037.44
2022-11-17T15:27:12.342Z,95034.97
2022-11-17T15:29:38.790Z,95026.69
2022-11-17T15:32:05.677Z,95040.28
2022-11-17T15:34:32.074Z,95040.41
2022-11-17T15:36:58.470Z,95045.53
2022-11-17T15:39:24.920Z,95047.44
2022-11-17T15:41:51.828Z,95050.97
2022-11-17T15:44:20.848Z,95045.03
2022-11-17T15:46:48.066Z,95045.16
2022-11-17T15:49:15.369Z,95047.81
2022-11-17T15:51:42.155Z,95045.25
2022-11-17T15:54:15.119Z,95046.25
2022-11-17T15:56:46.297Z,95040.28
2022-11-17T15:59:12.794Z,95026.78
2022-11-17T16:01:40.491Z,95027.66
2022-11-17T16:04:12.471Z,95031.94
2022-11-17T16:06:41.227Z,95033.63
2022-11-17T16:09:08.197Z,95027.75
2022-11-17T16:11:35.157Z,95025.19
2022-11-17T16:14:02.609Z,95022.72
2022-11-17T16:16:31.595Z,95024.50
2022-11-17T16:18:58.292Z,95027.94
2022-11-17T16:21:25.106Z,95030.44
2022-11-17T16:23:54.648Z,95019.38
2022-11-17T16:26:22.421Z,95033.03
2022-11-17T16:28:49.003Z,95036.44
2022-11-17T16:31:15.471Z,95033.03
2022-11-17T16:33:47.945Z,95030.53
2022-11-17T16:36:14.291Z,95037.34
2022-11-17T16:38:49.882Z,95037.41
2022-11-17T16:41:28.948Z,95031.47
2022-11-17T16:43:57.535Z,95022.91
2022-11-17T16:46:26.361Z,95027.16
2022-11-17T16:48:53.461Z,95014.50
2022-11-17T16:51:20.906Z,95023.88
2022-11-17T16:53:54.247Z,95023.06
2022-11-17T16:56:20.584Z,95023.94
2022-11-17T16:58:49.170Z,95022.31
2022-11-17T17:01:24.026Z,95027.38
2022-11-17T17:03:56.256Z,95021.50
2022-11-17T17:06:22.993Z,95021.50
2022-11-17T17:08:59.913Z,95036.72
2022-11-17T17:11:27.815Z,95031.63
2022-11-17T17:13:56.158Z,95018.97
2022-11-17T17:16:22.971Z,95022.41
2022-11-17T17:18:54.355Z,95032.59
2022-11-17T17:21:20.796Z,95035.97
2022-11-17T17:23:47.253Z,95034.28
2022-11-17T17:26:18.073Z,95031.78
2022-11-17T17:28:46.888Z,95032.63
2022-11-17T17:31:20.734Z,95030.13
2022-11-17T17:33:48.528Z,95030.13
2022-11-17T17:36:17.748Z,95027.59
2022-11-17T17:38:44.199Z,95032.69
2022-11-17T17:41:22.274Z,95030.19
2022-11-17T17:43:54.957Z,95031.88
2022-11-17T17:46:21.416Z,95019.91
2022-11-17T17:48:47.923Z,95020.75
2022-11-17T17:51:17.368Z,95031.00
2022-11-17T17:53:44.141Z,95021.72
2022-11-17T17:56:13.577Z,95013.22
2022-11-17T17:58:41.218Z,95012.31
2022-11-17T18:01:15.888Z,95013.19
2022-11-17T18:03:45.634Z,95012.31
2022-11-17T18:06:13.279Z,95011.53
2022-11-17T18:08:40.011Z,95009.84
2022-11-17T18:11:12.676Z,95009.81
2022-11-17T18:13:41.698Z,95008.09
2022-11-17T18:16:29.856Z,95011.53
2022-11-17T18:19:08.383Z,95009.91
2022-11-17T18:21:35.339Z,95015.78
2022-11-17T18:24:03.163Z,95015.00
2022-11-17T18:26:32.474Z,95013.28
2022-11-17T18:29:01.764Z,95017.50
2022-11-17T18:31:30.545Z,95023.47
2022-11-17T18:34:02.639Z,95031.97
2022-11-17T18:36:30.488Z,95024.38
2022-11-17T18:38:58.568Z,95035.41
2022-11-17T18:41:26.282Z,95030.31
2022-11-17T18:43:54.593Z,95040.44
2022-11-17T18:46:22.416Z,95020.97
2022-11-17T18:48:53.455Z,95015.09
2022-11-17T18:51:24.881Z,95004.91
2022-11-17T18:53:54.034Z,95010.00
2022-11-17T18:56:22.638Z,95006.59
2022-11-17T18:58:49.161Z,95003.25
2022-11-17T19:01:21.137Z,95013.47
2022-11-17T19:03:50.506Z,95018.56
2022-11-17T19:06:18.244Z,95020.31
2022-11-17T19:08:45.502Z,95022.84
2022-11-17T19:11:12.517Z,95013.53
2022-11-17T19:13:40.578Z,95025.34
2022-11-17T19:16:25.188Z,95016.06
2022-11-17T19:18:54.527Z,95028.75
2022-11-17T19:21:31.702Z,95039.78
2022-11-17T19:24:00.617Z,95034.63
2022-11-17T19:26:32.327Z,95030.44
2022-11-17T19:29:01.052Z,95019.41
2022-11-17T19:31:28.205Z,95017.75
2022-11-17T19:33:55.268Z,95024.47
2022-11-17T19:36:24.021Z,95021.06
2022-11-17T19:38:52.804Z,95024.47
2022-11-17T19:41:24.848Z,95029.56
2022-11-17T19:43:55.690Z,95032.09
2022-11-17T19:46:23.917Z,95027.00
2022-11-17T19:48:50.898Z,95025.31
2022-11-17T19:51:22.911Z,95033.75
2022-11-17T19:53:51.716Z,95037.19
2022-11-17T19:56:19.887Z,95044.81
2022-11-17T19:58:46.714Z,95045.72
2022-11-17T20:01:21.316Z,95045.72
2022-11-17T20:03:49.030Z,95037.22
2022-11-17T20:06:17.819Z,95038.06
2022-11-17T20:08:45.275Z,95033.03
2022-11-17T20:11:14.340Z,95021.16
2022-11-17T20:13:41.495Z,95016.91
2022-11-17T20:16:12.506Z,95026.25
2022-11-17T20:18:40.371Z,95031.38
2022-11-17T20:21:07.587Z,95038.16
2022-11-17T20:23:35.577Z,95037.31
2022-11-17T20:26:11.634Z,95024.63
2022-11-17T20:28:38.488Z,95035.63
2022-11-17T20:31:13.949Z,95033.09
2022-11-17T20:33:42.226Z,95031.38
2022-11-17T20:36:11.936Z,95026.28
2022-11-17T20:38:38.361Z,95029.69
2022-11-17T20:41:05.127Z,95027.97
2022-11-17T20:43:32.278Z,95028.88
2022-11-17T20:45:59.235Z,95030.59
2022-11-17T20:48:26.384Z,95018.78
2022-11-17T20:51:09.501Z,95008.59
2022-11-17T20:53:36.347Z,95029.78
2022-11-17T20:56:06.088Z,95020.41
2022-11-17T20:58:33.540Z,95022.97
2022-11-17T21:01:07.106Z,95015.34
2022-11-17T21:03:33.889Z,95017.00
2022-11-17T21:06:02.022Z,95025.47
2022-11-17T21:08:30.964Z,95031.38
2022-11-17T21:10:59.263Z,95036.50
2022-11-17T21:13:27.582Z,95035.69
2022-11-17T21:16:14.149Z,95024.63
2022-11-17T21:18:49.455Z,95031.38
2022-11-17T21:21:16.928Z,95026.28
2022-11-17T21:23:44.648Z,95017.84
2022-11-17T21:26:13.872Z,95033.09
2022-11-17T21:28:41.307Z,95032.25
2022-11-17T21:31:11.361Z,95032.25
2022-11-17T21:33:38.640Z,95041.53
2022-11-17T21:36:13.612Z,95037.34
2022-11-17T21:38:40.290Z,95046.63
2022-11-17T21:41:12.020Z,95045.75
2022-11-17T21:43:40.155Z,95043.19
2022-11-17T21:46:09.577Z,95040.69
2022-11-17T21:48:37.316Z,95045.75
2022-11-17T21:51:13.821Z,95050.78
2022-11-17T21:53:41.465Z,95048.25
2022-11-17T21:56:08.214Z,95041.50
2022-11-17T21:58:34.727Z,95061.81
2022-11-17T22:01:12.428Z,95052.50
2022-11-17T22:03:40.183Z,95057.53
2022-11-17T22:06:14.937Z,95057.56
2022-11-17T22:08:42.943Z,95067.69
2022-11-17T22:11:12.192Z,95058.44
2022-11-17T22:13:39.217Z,95073.66
2022-11-17T22:16:09.765Z,95068.56
2022-11-17T22:18:37.771Z,95077.84
2022-11-17T22:21:05.186Z,95076.13
2022-11-17T22:23:31.624Z,95079.50
2022-11-17T22:26:00.628Z,95070.97
2022-11-17T22:28:27.420Z,95073.47
2022-11-17T22:30:54.498Z,95082.00
2022-11-17T22:33:22.573Z,95079.47
2022-11-17T22:35:50.114Z,95087.94
2022-11-17T22:38:17.165Z,95093.03
2022-11-17T22:40:43.978Z,95091.34
2022-11-17T22:43:14.907Z,95093.06
2022-11-17T22:45:42.127Z,95099.88
2022-11-17T22:48:08.985Z,95106.63
2022-11-17T22:50:36.120Z,95115.97
2022-11-17T22:53:02.993Z,95121.03
2022-11-17T22:55:29.820Z,95126.09
2022-11-17T22:57:56.335Z,95123.53
2022-11-17T23:00:23.103Z,95128.59
2022-11-17T23:02:49.745Z,95118.44
2022-11-17T23:05:16.633Z,95115.06
2022-11-17T23:07:43.269Z,95106.66
2022-11-17T23:10:10.543Z,95106.69
2022-11-17T23:12:37.124Z,95094.84
2022-11-17T23:15:04.108Z,95101.63
2022-11-17T23:17:30.738Z,95104.16
2022-11-17T23:19:57.264Z,95094.78
2022-11-17T23:22:23.594Z,95093.97
2022-11-17T23:24:50.036Z,95085.50
2022-11-17T23:27:16.587Z,95083.78
2022-11-17T23:29:43.227Z,95094.00
2022-11-17T23:32:09.873Z,95081.31
2022-11-17T23:34:36.256Z,95069.44
2022-11-17T23:37:04.111Z,95075.38
2022-11-17T23:39:30.703Z,95066.06
2022-11-17T23:41:57.095Z,95064.38
2022-11-17T23:44:23.500Z,95064.41
2022-11-17T23:46:49.957Z,95069.41
2022-11-17T23:49:17.541Z,95067.75
2022-11-17T23:51:44.475Z,95056.75
2022-11-17T23:54:12.195Z,95061.84
2022-11-17T23:56:38.919Z,95065.25
2022-11-17T23:59:05.639Z,95064.41
